createdAt,value
2019-04-20T00:03:30.010Z,7.70
2019-04-20T00:08:36.181Z,7.60
2019-04-20T00:13:47.761Z,7.40
2019-04-20T00:18:50.286Z,7.30
2019-04-20T00:23:54.804Z,7.10
2019-04-20T00:29:20.174Z,7.00
2019-04-20T00:34:13.936Z,6.90
2019-04-20T00:39:14.976Z,6.80
2019-04-20T00:44:24.224Z,6.70
2019-04-20T00:49:38.921Z,6.70
2019-04-20T00:54:32.551Z,6.60
2019-04-20T01:00:03.106Z,6.60
2019-04-20T01:05:04.015Z,6.60
2019-04-20T01:09:58.819Z,6.50
2019-04-20T01:15:06.312Z,6.40
2019-04-20T01:20:12.768Z,6.40
2019-04-20T01:25:26.367Z,6.50
2019-04-20T01:30:32.228Z,6.40
2019-04-20T01:35:48.024Z,6.40
2019-04-20T01:40:42.207Z,6.30
2019-04-20T01:45:49.016Z,6.20
2019-04-20T01:51:02.751Z,6.00
2019-04-20T01:56:17.096Z,5.90
2019-04-20T02:01:35.450Z,5.70
2019-04-20T02:06:39.962Z,5.60
2019-04-20T02:11:48.416Z,5.60
2019-04-20T02:17:01.662Z,5.60
2019-04-20T02:22:09.791Z,5.50
2019-04-20T02:27:04.150Z,5.40
2019-04-20T02:32:38.040Z,5.20
2019-04-20T02:43:25.019Z,5.20
2019-04-20T02:48:14.071Z,5.20
2019-04-20T02:53:36.492Z,5.20
2019-04-20T02:58:23.359Z,5.20
2019-04-20T03:03:13.472Z,5.20
2019-04-20T03:08:26.284Z,5.10
2019-04-20T03:13:39.258Z,5.00
2019-04-20T03:18:40.930Z,4.80
2019-04-20T03:23:50.080Z,4.80
2019-04-20T03:29:05.589Z,4.70
2019-04-20T03:34:55.589Z,4.60
2019-04-20T03:39:23.233Z,4.60
2019-04-20T03:44:17.634Z,4.50
2019-04-20T03:49:43.889Z,4.40
2019-04-20T03:54:55.262Z,4.30
2019-04-20T04:00:35.934Z,4.10
2019-04-20T04:06:07.838Z,4.10
2019-04-20T04:11:16.053Z,4.00
2019-04-20T04:16:10.226Z,3.80
2019-04-20T04:21:21.297Z,3.70
2019-04-20T04:26:37.846Z,3.80
2019-04-20T04:31:45.721Z,3.90
2019-04-20T04:36:53.758Z,4.00
2019-04-20T04:42:07.043Z,4.20
2019-04-20T04:46:53.386Z,4.30
2019-04-20T04:51:59.299Z,4.30
2019-04-20T04:57:03.369Z,4.30
2019-04-20T05:02:08.025Z,4.30
2019-04-20T05:07:38.338Z,4.50
2019-04-20T05:12:35.039Z,4.70
2019-04-20T05:18:01.839Z,5.00
2019-04-20T05:23:21.007Z,5.20
2019-04-20T05:28:27.615Z,5.30
2019-04-20T05:33:31.479Z,5.50
2019-04-20T05:38:47.133Z,5.70
2019-04-20T05:44:19.312Z,6.00
2019-04-20T05:49:30.205Z,6.30
2019-04-20T05:54:42.943Z,6.60
2019-04-20T05:59:51.587Z,6.80
2019-04-20T06:05:00.002Z,7.10
2019-04-20T06:09:59.682Z,7.40
2019-04-20T06:15:22.308Z,7.50
2019-04-20T06:20:36.685Z,7.70
2019-04-20T06:26:11.128Z,7.90
2019-04-20T06:30:52.121Z,11.30
2019-04-20T06:36:29.279Z,17.60
2019-04-20T06:41:30.209Z,21.90
2019-04-20T06:46:29.186Z,23.70
2019-04-20T06:51:47.368Z,23.80
2019-04-20T06:57:10.259Z,25.40
2019-04-20T07:02:27.433Z,26.30
2019-04-20T07:07:28.007Z,27.40
2019-04-20T07:12:29.582Z,24.40
2019-04-20T07:17:53.289Z,24.80
2019-04-20T07:23:09.508Z,25.30
2019-04-20T07:28:05.864Z,26.10
2019-04-20T07:33:08.755Z,26.30
2019-04-20T07:43:19.739Z,26.90
2019-04-20T07:48:27.679Z,26.20
2019-04-20T07:53:30.550Z,25.80
2019-04-20T07:58:30.522Z,25.60
2019-04-20T08:03:55.645Z,26.60
2019-04-20T08:09:05.776Z,27.00
2019-04-20T08:14:22.669Z,27.00
2019-04-20T08:19:23.023Z,28.10
2019-04-20T08:24:25.564Z,27.00
2019-04-20T08:29:41.732Z,28.40
2019-04-20T08:34:50.759Z,27.50
2019-04-20T08:40:01.571Z,26.50
2019-04-20T09:09:37.560Z,26.10
2019-04-20T09:14:28.052Z,26.50
2019-04-20T09:39:08.360Z,27.60
2019-04-20T09:44:04.650Z,27.80
2019-04-20T09:49:20.081Z,27.10
2019-04-20T09:54:35.869Z,27.10
2019-04-20T09:59:45.077Z,27.00
2019-04-20T10:04:29.227Z,25.90
2019-04-20T10:09:38.196Z,25.10
2019-04-20T10:14:40.745Z,25.10
2019-04-20T10:19:46.595Z,25.20
2019-04-20T10:24:52.678Z,23.70
2019-04-20T10:30:01.127Z,23.40
2019-04-20T10:35:06.463Z,23.30
2019-04-20T10:40:13.463Z,23.20
2019-04-20T10:45:19.314Z,23.10
2019-04-20T10:50:24.989Z,23.60
2019-04-20T10:55:29.674Z,23.80
2019-04-20T11:00:45.921Z,23.70
2019-04-20T11:05:50.966Z,24.20
2019-04-20T11:11:07.149Z,24.00
2019-04-20T11:16:02.511Z,24.60
2019-04-20T11:21:07.324Z,24.80
2019-04-20T11:26:11.997Z,24.30
2019-04-20T11:31:16.957Z,24.50
2019-04-20T11:36:23.190Z,24.70
2019-04-20T11:41:31.042Z,24.80
2019-04-20T11:46:36.579Z,24.10
2019-04-20T11:51:41.700Z,24.30
2019-04-20T11:56:47.280Z,24.60
2019-04-20T12:02:30.226Z,24.40
2019-04-20T12:07:35.238Z,24.40
2019-04-20T12:12:44.352Z,24.70
2019-04-20T12:17:47.340Z,24.90
2019-04-20T12:22:52.583Z,24.60
2019-04-20T12:28:00.570Z,24.50
2019-04-20T12:33:05.608Z,24.40
2019-04-20T12:38:10.657Z,24.60
2019-04-20T12:43:15.331Z,24.40
2019-04-20T12:48:20.068Z,24.60
2019-04-20T12:53:24.608Z,24.40
2019-04-20T12:58:30.546Z,24.60
2019-04-20T13:03:35.300Z,24.80
2019-04-20T13:08:44.402Z,24.40
2019-04-20T13:14:22.158Z,24.50
2019-04-20T13:19:29.950Z,24.80
2019-04-20T13:24:36.974Z,24.50
2019-04-20T13:29:42.784Z,24.30
2019-04-20T13:34:49.737Z,24.10
2019-04-20T13:39:54.756Z,24.30
2019-04-20T13:44:59.231Z,24.40
2019-04-20T13:50:05.215Z,24.60
2019-04-20T13:55:12.761Z,24.60
2019-04-20T14:00:34.321Z,24.40
2019-04-20T14:05:38.891Z,24.40
2019-04-20T14:10:45.093Z,24.30
2019-04-20T14:15:51.242Z,24.40
2019-04-20T14:20:56.312Z,24.50
2019-04-20T14:26:03.110Z,24.30
2019-04-20T14:31:07.878Z,24.10
2019-04-20T14:36:12.844Z,24.10
2019-04-20T14:41:18.362Z,23.90
2019-04-20T14:46:23.132Z,24.10
2019-04-20T14:51:27.975Z,23.90
2019-04-20T14:56:33.617Z,23.60
2019-04-20T15:01:40.978Z,23.80
2019-04-20T15:06:46.568Z,23.60
2019-04-20T15:11:51.181Z,23.50
2019-04-20T15:16:56.381Z,23.20
2019-04-20T15:22:03.261Z,23.20
2019-04-20T15:27:08.015Z,23.20
2019-04-20T15:32:13.245Z,23.10
2019-04-20T15:37:20.283Z,23.10
2019-04-20T15:42:25.385Z,23.00
2019-04-20T15:47:30.349Z,22.90
2019-04-20T15:52:40.759Z,22.80
2019-04-20T15:57:42.535Z,22.60
2019-04-20T16:02:57.265Z,22.50
2019-04-20T16:08:18.703Z,22.50
2019-04-20T16:13:29.809Z,22.50
2019-04-20T16:18:30.886Z,22.40
2019-04-20T16:23:43.865Z,22.10
2019-04-20T16:28:50.149Z,22.10
2019-04-20T16:33:58.510Z,22.00
2019-04-20T16:39:03.686Z,22.00
2019-04-20T16:44:09.316Z,21.80
2019-04-20T16:49:14.776Z,21.60
2019-04-20T16:54:21.791Z,21.50
2019-04-20T16:59:28.136Z,21.30
2019-04-20T17:04:34.391Z,21.20
2019-04-20T17:09:41.949Z,21.00
2019-04-20T17:14:47.648Z,20.90
2019-04-20T17:19:53.511Z,20.80
2019-04-20T17:24:58.382Z,20.50
2019-04-20T17:30:27.096Z,20.40
2019-04-20T17:35:43.581Z,20.20
2019-04-20T17:41:01.539Z,19.90
2019-04-20T17:45:57.861Z,19.80
2019-04-20T17:51:16.893Z,19.60
2019-04-20T17:56:05.122Z,19.40
2019-04-20T18:01:56.471Z,19.20
2019-04-20T18:07:08.938Z,18.90
2019-04-20T18:12:03.309Z,18.70
2019-04-20T18:17:29.366Z,18.40
2019-04-20T18:22:21.530Z,18.10
2019-04-20T18:27:41.467Z,18.00
2019-04-20T18:32:35.854Z,17.60
2019-04-20T18:37:44.076Z,17.20
2019-04-20T18:43:00.029Z,16.70
2019-04-20T18:48:18.750Z,16.30
2019-04-20T18:53:03.461Z,15.80
2019-04-20T18:58:09.168Z,15.30
2019-04-20T19:03:20.240Z,14.90
2019-04-20T19:08:31.277Z,14.50
2019-04-20T19:13:47.774Z,14.10
2019-04-20T19:19:20.167Z,13.90
2019-04-20T19:24:18.314Z,13.70
2019-04-20T19:29:30.999Z,13.30
2019-04-20T19:34:41.781Z,13.10
2019-04-20T19:39:49.419Z,13.00
2019-04-20T19:44:59.556Z,12.90
2019-04-20T19:50:20.720Z,12.80
2019-04-20T19:55:16.201Z,12.90
2019-04-20T20:00:03.830Z,12.80
2019-04-20T20:05:12.134Z,12.60
2019-04-20T20:10:16.695Z,12.30
2019-04-20T20:15:29.653Z,12.30
2019-04-20T20:20:47.367Z,12.20
2019-04-20T20:25:43.164Z,12.50
2019-04-20T20:30:56.786Z,12.70
2019-04-20T20:36:01.977Z,12.80
2019-04-20T20:41:08.758Z,12.80
2019-04-20T20:46:19.815Z,12.80
2019-04-20T20:51:39.173Z,12.50
2019-04-20T20:56:25.034Z,12.20
2019-04-20T21:01:37.822Z,12.00
2019-04-20T21:06:34.773Z,12.00
2019-04-20T21:11:40.160Z,11.90
2019-04-20T21:16:53.502Z,11.90
2019-04-20T21:22:00.018Z,11.80
2019-04-20T21:27:00.663Z,12.00
2019-04-20T21:32:11.862Z,12.10
2019-04-20T21:37:17.104Z,11.80
2019-04-20T21:42:21.628Z,11.50
2019-04-20T21:47:31.435Z,11.30
2019-04-20T21:52:39.223Z,11.10
2019-04-20T21:57:44.702Z,11.00
2019-04-20T22:02:53.052Z,10.90
2019-04-20T22:07:50.479Z,10.90
2019-04-20T22:12:59.670Z,11.00
2019-04-20T22:18:09.122Z,10.70
2019-04-20T22:23:23.288Z,10.40
2019-04-20T22:28:16.507Z,10.10
2019-04-20T22:33:29.825Z,10.40
2019-04-20T22:38:37.578Z,10.70
2019-04-20T22:43:42.201Z,10.90
2019-04-20T22:48:55.247Z,10.70
2019-04-20T22:54:10.982Z,10.70
2019-04-20T22:59:06.783Z,10.40
2019-04-20T23:04:06.839Z,10.20
2019-04-20T23:09:14.710Z,9.80
2019-04-20T23:14:18.321Z,9.30
2019-04-20T23:19:34.515Z,9.00
2019-04-20T23:24:31.088Z,8.70
2019-04-20T23:29:39.507Z,8.60
2019-04-20T23:34:42.628Z,8.40
2019-04-20T23:39:50.720Z,8.30
2019-04-20T23:45:03.720Z,8.20
2019-04-20T23:50:30.656Z,8.10
2019-04-20T23:55:19.010Z,7.80
